sensor_id;sensor_type;location;lat;lon;timestamp;pressure;altitude;pressure_sealevel;temperature;humidity
64078;BME280;51039;49.696;10.808;2023-08-06T00:00:27;97628.78;;;15.53;100.00
64078;BME280;51039;49.696;10.808;2023-08-06T00:02:53;97628.19;;;15.51;100.00
64078;BME280;51039;49.696;10.808;2023-08-06T00:05:18;97624.97;;;15.49;100.00
64078;BME280;51039;49.696;10.808;2023-08-06T00:07:45;97623.94;;;15.50;100.00
64078;BME280;51039;49.696;10.808;2023-08-06T00:10:11;97623.38;;;15.48;100.00
64078;BME280;51039;49.696;10.808;2023-08-06T00:12:36;97610.28;;;15.46;100.00
64078;BME280;51039;49.696;10.808;2023-08-06T00:15:02;97621.19;;;15.45;100.00
64078;BME280;51039;49.696;10.808;2023-08-06T00:17:27;97620.97;;;15.46;100.00
64078;BME280;51039;49.696;10.808;2023-08-06T00:19:53;97606.00;;;15.45;100.00
64078;BME280;51039;49.696;10.808;2023-08-06T00:22:18;97607.00;;;15.39;100.00
64078;BME280;51039;49.696;10.808;2023-08-06T00:24:43;97598.13;;;15.34;100.00
64078;BME280;51039;49.696;10.808;2023-08-06T00:27:09;97593.03;;;15.27;100.00
64078;BME280;51039;49.696;10.808;2023-08-06T00:29:34;97601.66;;;15.12;100.00
64078;BME280;51039;49.696;10.808;2023-08-06T00:31:59;97602.59;;;15.01;100.00
64078;BME280;51039;49.696;10.808;2023-08-06T00:34:25;97589.97;;;14.91;100.00
64078;BME280;51039;49.696;10.808;2023-08-06T00:36:50;97577.63;;;14.85;100.00
64078;BME280;51039;49.696;10.808;2023-08-06T00:39:16;97583.16;;;14.78;100.00
64078;BME280;51039;49.696;10.808;2023-08-06T00:41:41;97577.94;;;14.66;100.00
64078;BME280;51039;49.696;10.808;2023-08-06T00:44:06;97574.44;;;14.61;100.00
64078;BME280;51039;49.696;10.808;2023-08-06T00:46:32;97569.09;;;14.61;100.00
64078;BME280;51039;49.696;10.808;2023-08-06T00:48:58;97576.78;;;14.57;100.00
64078;BME280;51039;49.696;10.808;2023-08-06T00:51:24;97575.22;;;14.61;100.00
64078;BME280;51039;49.696;10.808;2023-08-06T00:53:50;97574.31;;;14.56;100.00
64078;BME280;51039;49.696;10.808;2023-08-06T00:56:17;97564.72;;;14.54;100.00
64078;BME280;51039;49.696;10.808;2023-08-06T00:58:42;97568.44;;;14.53;100.00
64078;BME280;51039;49.696;10.808;2023-08-06T01:01:09;97558.81;;;14.52;100.00
64078;BME280;51039;49.696;10.808;2023-08-06T01:03:35;97571.91;;;14.54;100.00
64078;BME280;51039;49.696;10.808;2023-08-06T01:06:00;97569.78;;;14.56;100.00
64078;BME280;51039;49.696;10.808;2023-08-06T01:08:41;97569.69;;;14.46;100.00
64078;BME280;51039;49.696;10.808;2023-08-06T01:14:37;97570.97;;;14.43;100.00
64078;BME280;51039;49.696;10.808;2023-08-06T01:17:10;97566.22;;;14.45;100.00
64078;BME280;51039;49.696;10.808;2023-08-06T01:19:37;97569.69;;;14.46;100.00
64078;BME280;51039;49.696;10.808;2023-08-06T01:22:03;97563.03;;;14.48;100.00
64078;BME280;51039;49.696;10.808;2023-08-06T01:24:29;97573.47;;;14.50;100.00
64078;BME280;51039;49.696;10.808;2023-08-06T01:29:25;97563.56;;;14.45;100.00
64078;BME280;51039;49.696;10.808;2023-08-06T01:31:56;97559.81;;;14.46;100.00
64078;BME280;51039;49.696;10.808;2023-08-06T01:34:24;97559.34;;;14.49;100.00
64078;BME280;51039;49.696;10.808;2023-08-06T01:36:52;97549.00;;;14.53;100.00
64078;BME280;51039;49.696;10.808;2023-08-06T01:39:18;97544.22;;;14.55;100.00
64078;BME280;51039;49.696;10.808;2023-08-06T01:41:47;97546.56;;;14.51;100.00
64078;BME280;51039;49.696;10.808;2023-08-06T01:44:13;97547.56;;;14.45;100.00
64078;BME280;51039;49.696;10.808;2023-08-06T01:46:40;97546.97;;;14.43;100.00
64078;BME280;51039;49.696;10.808;2023-08-06T01:49:05;97545.19;;;14.49;100.00
64078;BME280;51039;49.696;10.808;2023-08-06T01:51:30;97551.38;;;14.54;100.00
64078;BME280;51039;49.696;10.808;2023-08-06T01:53:56;97540.16;;;14.52;100.00
64078;BME280;51039;49.696;10.808;2023-08-06T01:56:21;97538.03;;;14.49;100.00
64078;BME280;51039;49.696;10.808;2023-08-06T01:58:46;97540.59;;;14.44;100.00
64078;BME280;51039;49.696;10.808;2023-08-06T02:01:11;97534.25;;;14.45;100.00
64078;BME280;51039;49.696;10.808;2023-08-06T02:03:37;97535.91;;;14.51;100.00
64078;BME280;51039;49.696;10.808;2023-08-06T02:06:02;97531.38;;;14.52;100.00
64078;BME280;51039;49.696;10.808;2023-08-06T02:08:27;97532.94;;;14.48;100.00
64078;BME280;51039;49.696;10.808;2023-08-06T02:10:53;97531.25;;;14.42;100.00
64078;BME280;51039;49.696;10.808;2023-08-06T02:13:19;97532.53;;;14.39;100.00
64078;BME280;51039;49.696;10.808;2023-08-06T02:15:45;97532.53;;;14.39;100.00
64078;BME280;51039;49.696;10.808;2023-08-06T02:18:12;97524.63;;;14.44;100.00
64078;BME280;51039;49.696;10.808;2023-08-06T02:20:38;97520.22;;;14.33;100.00
64078;BME280;51039;49.696;10.808;2023-08-06T02:23:04;97516.25;;;14.36;100.00
64078;BME280;51039;49.696;10.808;2023-08-06T02:25:29;97507.97;;;14.32;100.00
64078;BME280;51039;49.696;10.808;2023-08-06T02:27:54;97506.16;;;14.38;100.00
64078;BME280;51039;49.696;10.808;2023-08-06T02:30:19;97509.44;;;14.45;100.00
64078;BME280;51039;49.696;10.808;2023-08-06T02:32:45;97500.88;;;14.43;100.00
64078;BME280;51039;49.696;10.808;2023-08-06T02:35:10;97493.69;;;14.43;100.00
64078;BME280;51039;49.696;10.808;2023-08-06T02:37:35;97497.50;;;14.47;100.00
64078;BME280;51039;49.696;10.808;2023-08-06T02:40:01;97495.94;;;14.51;100.00
64078;BME280;51039;49.696;10.808;2023-08-06T02:42:27;97489.75;;;14.46;100.00
64078;BME280;51039;49.696;10.808;2023-08-06T02:44:52;97482.53;;;14.46;100.00
64078;BME280;51039;49.696;10.808;2023-08-06T02:47:20;97474.00;;;14.44;100.00
64078;BME280;51039;49.696;10.808;2023-08-06T02:49:45;97480.38;;;14.43;100.00
64078;BME280;51039;49.696;10.808;2023-08-06T02:52:11;97478.09;;;14.30;100.00
64078;BME280;51039;49.696;10.808;2023-08-06T02:54:36;97476.41;;;14.24;100.00
64078;BME280;51039;49.696;10.808;2023-08-06T02:57:01;97473.25;;;14.27;100.00
64078;BME280;51039;49.696;10.808;2023-08-06T02:59:27;97470.34;;;14.28;100.00
64078;BME280;51039;49.696;10.808;2023-08-06T03:01:52;97466.88;;;14.28;100.00
64078;BME280;51039;49.696;10.808;2023-08-06T03:04:18;97457.03;;;14.28;100.00
64078;BME280;51039;49.696;10.808;2023-08-06T03:06:43;97455.72;;;14.31;100.00
64078;BME280;51039;49.696;10.808;2023-08-06T03:09:08;97451.75;;;14.33;100.00
64078;BME280;51039;49.696;10.808;2023-08-06T03:11:34;97463.16;;;14.29;100.00
64078;BME280;51039;49.696;10.808;2023-08-06T03:13:59;97446.38;;;14.28;100.00
64078;BME280;51039;49.696;10.808;2023-08-06T03:16:24;97453.81;;;14.26;100.00
64078;BME280;51039;49.696;10.808;2023-08-06T03:18:50;97445.53;;;14.23;100.00
64078;BME280;51039;49.696;10.808;2023-08-06T03:21:15;97444.75;;;14.27;100.00
64078;BME280;51039;49.696;10.808;2023-08-06T03:23:40;97444.66;;;14.17;100.00
64078;BME280;51039;49.696;10.808;2023-08-06T03:26:06;97448.03;;;14.12;100.00
64078;BME280;51039;49.696;10.808;2023-08-06T03:28:31;97440.06;;;14.12;100.00
64078;BME280;51039;49.696;10.808;2023-08-06T03:31:03;97446.13;;;14.08;100.00
64078;BME280;51039;49.696;10.808;2023-08-06T03:33:28;97442.84;;;14.01;100.00
64078;BME280;51039;49.696;10.808;2023-08-06T03:35:54;97451.59;;;13.96;100.00
64078;BME280;51039;49.696;10.808;2023-08-06T03:38:19;97443.59;;;13.96;100.00
64078;BME280;51039;49.696;10.808;2023-08-06T03:40:46;97443.13;;;13.99;100.00
64078;BME280;51039;49.696;10.808;2023-08-06T03:43:11;97439.63;;;13.99;100.00
64078;BME280;51039;49.696;10.808;2023-08-06T03:45:37;97445.50;;;14.01;100.00
64078;BME280;51039;49.696;10.808;2023-08-06T03:48:02;97444.50;;;13.85;100.00
64078;BME280;51039;49.696;10.808;2023-08-06T03:50:28;97451.84;;;13.78;100.00
64078;BME280;51039;49.696;10.808;2023-08-06T03:52:53;97441.09;;;13.67;100.00
64078;BME280;51039;49.696;10.808;2023-08-06T03:55:18;97445.22;;;13.58;100.00
64078;BME280;51039;49.696;10.808;2023-08-06T03:57:44;97434.25;;;13.54;100.00
64078;BME280;51039;49.696;10.808;2023-08-06T04:00:09;97425.78;;;13.58;100.00
64078;BME280;51039;49.696;10.808;2023-08-06T04:02:35;97429.19;;;13.53;100.00
64078;BME280;51039;49.696;10.808;2023-08-06T04:05:00;97429.75;;;13.55;100.00
64078;BME280;51039;49.696;10.808;2023-08-06T04:07:26;97425.03;;;13.62;100.00
64078;BME280;51039;49.696;10.808;2023-08-06T04:09:58;97417.06;;;13.62;100.00
64078;BME280;51039;49.696;10.808;2023-08-06T04:12:25;97425.59;;;13.64;100.00
64078;BME280;51039;49.696;10.808;2023-08-06T04:14:51;97427.66;;;13.57;100.00
64078;BME280;51039;49.696;10.808;2023-08-06T04:17:17;97429.25;;;13.58;100.00
64078;BME280;51039;49.696;10.808;2023-08-06T04:19:45;97431.47;;;13.66;100.00
64078;BME280;51039;49.696;10.808;2023-08-06T04:22:12;97435.84;;;13.72;100.00
64078;BME280;51039;49.696;10.808;2023-08-06T04:24:37;97436.16;;;13.76;100.00
64078;BME280;51039;49.696;10.808;2023-08-06T04:27:03;97433.19;;;13.72;100.00
64078;BME280;51039;49.696;10.808;2023-08-06T04:29:28;97432.19;;;13.79;100.00
64078;BME280;51039;49.696;10.808;2023-08-06T04:31:54;97426.34;;;13.82;100.00
64078;BME280;51039;49.696;10.808;2023-08-06T04:34:19;97434.94;;;13.84;100.00
64078;BME280;51039;49.696;10.808;2023-08-06T04:36:44;97431.69;;;13.82;100.00
64078;BME280;51039;49.696;10.808;2023-08-06T04:39:10;97435.41;;;13.81;100.00
64078;BME280;51039;49.696;10.808;2023-08-06T04:41:35;97435.50;;;13.86;100.00
64078;BME280;51039;49.696;10.808;2023-08-06T04:44:00;97429.16;;;13.92;100.00
64078;BME280;51039;49.696;10.808;2023-08-06T04:46:26;97426.06;;;14.00;100.00
64078;BME280;51039;49.696;10.808;2023-08-06T04:48:51;97424.56;;;14.31;100.00
64078;BME280;51039;49.696;10.808;2023-08-06T04:51:16;97431.09;;;14.68;100.00
64078;BME280;51039;49.696;10.808;2023-08-06T04:53:42;97418.88;;;14.99;100.00
64078;BME280;51039;49.696;10.808;2023-08-06T04:56:07;97423.22;;;15.90;100.00
64078;BME280;51039;49.696;10.808;2023-08-06T04:58:32;97429.25;;;15.76;100.00
64078;BME280;51039;49.696;10.808;2023-08-06T05:00:58;97419.34;;;15.71;100.00
64078;BME280;51039;49.696;10.808;2023-08-06T05:03:23;97428.06;;;16.93;97.87
64078;BME280;51039;49.696;10.808;2023-08-06T05:05:49;97418.31;;;17.94;88.11
64078;BME280;51039;49.696;10.808;2023-08-06T05:08:15;97419.69;;;18.41;86.95
64078;BME280;51039;49.696;10.808;2023-08-06T05:10:42;97422.06;;;17.93;88.96
64078;BME280;51039;49.696;10.808;2023-08-06T05:13:09;97425.78;;;19.02;84.86
64078;BME280;51039;49.696;10.808;2023-08-06T05:15:34;97419.25;;;20.63;76.07
64078;BME280;51039;49.696;10.808;2023-08-06T05:17:59;97418.00;;;21.07;71.90
64078;BME280;51039;49.696;10.808;2023-08-06T05:20:25;97423.41;;;18.95;82.31
64078;BME280;51039;49.696;10.808;2023-08-06T05:22:50;97414.28;;;17.92;87.83
64078;BME280;51039;49.696;10.808;2023-08-06T05:25:16;97418.94;;;16.83;94.62
64078;BME280;51039;49.696;10.808;2023-08-06T05:27:41;97417.28;;;16.62;96.67
64078;BME280;51039;49.696;10.808;2023-08-06T05:30:07;97417.09;;;16.00;100.00
64078;BME280;51039;49.696;10.808;2023-08-06T05:32:32;97412.31;;;16.02;100.00
64078;BME280;51039;49.696;10.808;2023-08-06T05:34:58;97406.22;;;16.17;100.00
64078;BME280;51039;49.696;10.808;2023-08-06T05:37:23;97412.91;;;16.30;100.00
64078;BME280;51039;49.696;10.808;2023-08-06T05:39:48;97418.31;;;16.40;99.97
64078;BME280;51039;49.696;10.808;2023-08-06T05:42:14;97410.31;;;16.51;99.74
64078;BME280;51039;49.696;10.808;2023-08-06T05:44:39;97415.75;;;17.02;96.60
64078;BME280;51039;49.696;10.808;2023-08-06T05:47:04;97406.38;;;16.89;94.17
64078;BME280;51039;49.696;10.808;2023-08-06T05:49:30;97406.91;;;17.37;94.67
64078;BME280;51039;49.696;10.808;2023-08-06T05:51:55;97413.53;;;20.27;77.35
64078;BME280;51039;49.696;10.808;2023-08-06T05:54:21;97411.97;;;19.48;78.46
64078;BME280;51039;49.696;10.808;2023-08-06T05:56:46;97415.78;;;20.38;76.19
64078;BME280;51039;49.696;10.808;2023-08-06T05:59:12;97416.63;;;23.89;61.56
64078;BME280;51039;49.696;10.808;2023-08-06T06:01:37;97418.28;;;25.73;53.89
64078;BME280;51039;49.696;10.808;2023-08-06T06:04:02;97401.66;;;27.18;50.42
64078;BME280;51039;49.696;10.808;2023-08-06T06:06:28;97409.97;;;26.38;51.61
64078;BME280;51039;49.696;10.808;2023-08-06T06:08:53;97409.22;;;24.21;58.28
64078;BME280;51039;49.696;10.808;2023-08-06T06:11:19;97404.50;;;23.01;62.22
64078;BME280;51039;49.696;10.808;2023-08-06T06:13:46;97406.72;;;21.38;69.59
64078;BME280;51039;49.696;10.808;2023-08-06T06:16:12;97399.16;;;20.55;71.93
64078;BME280;51039;49.696;10.808;2023-08-06T06:18:37;97400.97;;;19.69;76.85
64078;BME280;51039;49.696;10.808;2023-08-06T06:21:03;97401.44;;;19.22;81.15
64078;BME280;51039;49.696;10.808;2023-08-06T06:23:28;97403.25;;;18.58;83.40
64078;BME280;51039;49.696;10.808;2023-08-06T06:25:53;97398.56;;;18.35;85.69
64078;BME280;51039;49.696;10.808;2023-08-06T06:28:19;97391.53;;;17.94;88.52
64078;BME280;51039;49.696;10.808;2023-08-06T06:30:45;97407.66;;;17.58;90.08
64078;BME280;51039;49.696;10.808;2023-08-06T06:33:10;97400.78;;;17.26;91.82
64078;BME280;51039;49.696;10.808;2023-08-06T06:35:36;97395.94;;;17.44;91.48
64078;BME280;51039;49.696;10.808;2023-08-06T06:38:01;97402.38;;;17.02;93.42
64078;BME280;51039;49.696;10.808;2023-08-06T06:40:27;97405.56;;;16.99;93.96
64078;BME280;51039;49.696;10.808;2023-08-06T06:42:53;97402.31;;;16.56;96.58
64078;BME280;51039;49.696;10.808;2023-08-06T06:45:18;97403.63;;;16.43;99.11
64078;BME280;51039;49.696;10.808;2023-08-06T06:47:44;97412.22;;;16.55;98.33
64078;BME280;51039;49.696;10.808;2023-08-06T06:50:09;97411.91;;;16.57;98.14
64078;BME280;51039;49.696;10.808;2023-08-06T06:52:34;97409.25;;;16.46;99.48
64078;BME280;51039;49.696;10.808;2023-08-06T06:55:00;97410.00;;;16.26;100.00
64078;BME280;51039;49.696;10.808;2023-08-06T06:57:25;97403.31;;;16.29;100.00
64078;BME280;51039;49.696;10.808;2023-08-06T06:59:51;97399.31;;;16.37;100.00
64078;BME280;51039;49.696;10.808;2023-08-06T07:02:16;97396.38;;;16.43;100.00
64078;BME280;51039;49.696;10.808;2023-08-06T07:04:41;97400.69;;;16.55;100.00
64078;BME280;51039;49.696;10.808;2023-08-06T07:07:06;97396.44;;;16.74;98.93
64078;BME280;51039;49.696;10.808;2023-08-06T07:09:32;97396.75;;;17.29;96.05
64078;BME280;51039;49.696;10.808;2023-08-06T07:11:57;97392.16;;;17.55;94.09
64078;BME280;51039;49.696;10.808;2023-08-06T07:14:24;97399.59;;;17.79;94.15
64078;BME280;51039;49.696;10.808;2023-08-06T07:16:50;97387.44;;;18.07;91.33
64078;BME280;51039;49.696;10.808;2023-08-06T07:19:16;97390.97;;;18.92;87.75
64078;BME280;51039;49.696;10.808;2023-08-06T07:21:41;97394.34;;;19.90;78.83
64078;BME280;51039;49.696;10.808;2023-08-06T07:24:07;97385.69;;;20.74;75.05
64078;BME280;51039;49.696;10.808;2023-08-06T07:26:32;97383.00;;;20.74;73.20
64078;BME280;51039;49.696;10.808;2023-08-06T07:28:57;97379.88;;;21.19;72.04
64078;BME280;51039;49.696;10.808;2023-08-06T07:31:22;97381.53;;;20.82;72.10
64078;BME280;51039;49.696;10.808;2023-08-06T07:33:48;97380.81;;;20.57;71.41
64078;BME280;51039;49.696;10.808;2023-08-06T07:36:13;97368.53;;;20.70;72.86
64078;BME280;51039;49.696;10.808;2023-08-06T07:38:39;97365.41;;;21.62;67.43
64078;BME280;51039;49.696;10.808;2023-08-06T07:41:05;97361.97;;;21.42;66.76
64078;BME280;51039;49.696;10.808;2023-08-06T07:43:31;97368.63;;;20.65;70.54
64078;BME280;51039;49.696;10.808;2023-08-06T07:46:00;97368.41;;;19.99;72.97
64078;BME280;51039;49.696;10.808;2023-08-06T07:48:26;97375.38;;;19.52;76.41
64078;BME280;51039;49.696;10.808;2023-08-06T07:50:52;97367.28;;;19.28;79.79
64078;BME280;51039;49.696;10.808;2023-08-06T07:53:19;97369.81;;;19.43;78.18
64078;BME280;51039;49.696;10.808;2023-08-06T07:55:52;97367.97;;;19.44;78.29
64078;BME280;51039;49.696;10.808;2023-08-06T07:58:18;97359.84;;;19.20;81.61
64078;BME280;51039;49.696;10.808;2023-08-06T08:00:47;97365.56;;;19.13;82.15
64078;BME280;51039;49.696;10.808;2023-08-06T08:03:16;97357.72;;;18.88;84.35
64078;BME280;51039;49.696;10.808;2023-08-06T08:05:42;97369.94;;;18.25;86.85
64078;BME280;51039;49.696;10.808;2023-08-06T08:08:08;97366.22;;;17.35;92.90
64078;BME280;51039;49.696;10.808;2023-08-06T08:10:34;97376.38;;;16.72;97.62
64078;BME280;51039;49.696;10.808;2023-08-06T08:13:00;97380.91;;;16.40;98.92
64078;BME280;51039;49.696;10.808;2023-08-06T08:15:27;97369.78;;;15.90;100.00
64078;BME280;51039;49.696;10.808;2023-08-06T08:17:56;97366.81;;;15.82;100.00
64078;BME280;51039;49.696;10.808;2023-08-06T08:20:21;97366.81;;;15.77;100.00
64078;BME280;51039;49.696;10.808;2023-08-06T08:22:47;97374.56;;;15.78;100.00
64078;BME280;51039;49.696;10.808;2023-08-06T08:25:12;97365.25;;;15.91;100.00
64078;BME280;51039;49.696;10.808;2023-08-06T08:27:38;97372.75;;;15.94;100.00
64078;BME280;51039;49.696;10.808;2023-08-06T08:30:04;97377.16;;;16.41;99.43
64078;BME280;51039;49.696;10.808;2023-08-06T08:32:30;97369.72;;;17.05;97.45
64078;BME280;51039;49.696;10.808;2023-08-06T08:34:55;97374.81;;;17.06;94.45
64078;BME280;51039;49.696;10.808;2023-08-06T08:37:22;97372.38;;;17.20;95.22
64078;BME280;51039;49.696;10.808;2023-08-06T08:39:48;97373.44;;;17.30;92.42
64078;BME280;51039;49.696;10.808;2023-08-06T08:42:13;97375.31;;;17.44;91.89
64078;BME280;51039;49.696;10.808;2023-08-06T08:44:40;97365.88;;;17.62;90.74
64078;BME280;51039;49.696;10.808;2023-08-06T08:47:07;97358.88;;;17.77;88.09
64078;BME280;51039;49.696;10.808;2023-08-06T08:49:34;97367.56;;;17.33;89.90
64078;BME280;51039;49.696;10.808;2023-08-06T08:52:00;97355.28;;;17.11;91.36
64078;BME280;51039;49.696;10.808;2023-08-06T08:54:27;97364.47;;;17.96;89.17
64078;BME280;51039;49.696;10.808;2023-08-06T08:56:55;97362.72;;;19.82;81.05
64078;BME280;51039;49.696;10.808;2023-08-06T08:59:21;97363.25;;;19.55;79.45
64078;BME280;51039;49.696;10.808;2023-08-06T09:01:48;97369.56;;;18.42;82.85
64078;BME280;51039;49.696;10.808;2023-08-06T09:04:18;97366.53;;;18.09;84.73
64078;BME280;51039;49.696;10.808;2023-08-06T09:06:45;97372.31;;;17.61;88.24
64078;BME280;51039;49.696;10.808;2023-08-06T09:09:12;97364.34;;;17.20;91.12
64078;BME280;51039;49.696;10.808;2023-08-06T09:11:43;97365.97;;;16.80;95.99
64078;BME280;51039;49.696;10.808;2023-08-06T09:14:10;97369.44;;;16.60;97.60
64078;BME280;51039;49.696;10.808;2023-08-06T09:16:36;97368.09;;;16.68;99.14
64078;BME280;51039;49.696;10.808;2023-08-06T09:19:12;97365.19;;;16.85;97.59
64078;BME280;51039;49.696;10.808;2023-08-06T09:21:41;97362.75;;;17.14;96.35
64078;BME280;51039;49.696;10.808;2023-08-06T09:24:08;97363.84;;;17.13;97.00
64078;BME280;51039;49.696;10.808;2023-08-06T09:26:36;97359.19;;;17.65;94.84
64078;BME280;51039;49.696;10.808;2023-08-06T09:29:03;97363.16;;;18.82;88.10
64078;BME280;51039;49.696;10.808;2023-08-06T09:31:41;97357.91;;;19.01;86.81
64078;BME280;51039;49.696;10.808;2023-08-06T09:34:11;97355.22;;;18.62;86.22
64078;BME280;51039;49.696;10.808;2023-08-06T09:36:41;97357.22;;;17.96;89.12
64078;BME280;51039;49.696;10.808;2023-08-06T09:39:12;97360.25;;;17.59;91.34
64078;BME280;51039;49.696;10.808;2023-08-06T09:41:39;97352.59;;;17.26;92.03
64078;BME280;51039;49.696;10.808;2023-08-06T09:44:04;97348.22;;;17.51;91.48
64078;BME280;51039;49.696;10.808;2023-08-06T09:46:31;97350.06;;;17.61;91.37
64078;BME280;51039;49.696;10.808;2023-08-06T09:48:57;97346.16;;;17.33;91.66
64078;BME280;51039;49.696;10.808;2023-08-06T09:51:22;97343.88;;;17.86;89.43
64078;BME280;51039;49.696;10.808;2023-08-06T09:53:48;97345.91;;;18.49;85.34
64078;BME280;51039;49.696;10.808;2023-08-06T09:56:13;97346.97;;;18.93;83.08
64078;BME280;51039;49.696;10.808;2023-08-06T09:58:42;97339.69;;;20.19;80.45
64078;BME280;51039;49.696;10.808;2023-08-06T10:01:09;97339.19;;;20.88;73.21
64078;BME280;51039;49.696;10.808;2023-08-06T10:03:36;97332.63;;;21.27;70.44
64078;BME280;51039;49.696;10.808;2023-08-06T10:06:01;97335.88;;;20.20;74.71
64078;BME280;51039;49.696;10.808;2023-08-06T10:08:31;97330.19;;;19.59;76.68
64078;BME280;51039;49.696;10.808;2023-08-06T10:10:57;97333.03;;;19.68;76.08
64078;BME280;51039;49.696;10.808;2023-08-06T10:13:23;97320.78;;;20.62;72.10
64078;BME280;51039;49.696;10.808;2023-08-06T10:15:50;97338.00;;;22.10;67.58
64078;BME280;51039;49.696;10.808;2023-08-06T10:18:16;97331.97;;;22.13;66.54
64078;BME280;51039;49.696;10.808;2023-08-06T10:20:46;97330.59;;;21.32;68.58
64078;BME280;51039;49.696;10.808;2023-08-06T10:23:11;97333.38;;;21.13;70.66
64078;BME280;51039;49.696;10.808;2023-08-06T10:25:42;97321.84;;;21.27;68.06
64078;BME280;51039;49.696;10.808;2023-08-06T10:28:08;97316.34;;;21.32;68.09
64078;BME280;51039;49.696;10.808;2023-08-06T10:30:41;97322.00;;;21.16;67.85
64078;BME280;51039;49.696;10.808;2023-08-06T10:33:07;97317.09;;;21.65;66.76
64078;BME280;51039;49.696;10.808;2023-08-06T10:38:03;97306.97;;;21.15;67.25
64078;BME280;51039;49.696;10.808;2023-08-06T10:40:29;97311.34;;;21.11;68.37
64078;BME280;51039;49.696;10.808;2023-08-06T10:42:58;97308.00;;;21.47;64.29
64078;BME280;51039;49.696;10.808;2023-08-06T10:45:24;97304.88;;;20.79;66.79
64078;BME280;51039;49.696;10.808;2023-08-06T10:47:53;97301.16;;;20.43;66.51
64078;BME280;51039;49.696;10.808;2023-08-06T10:50:19;97291.88;;;21.01;67.15
64078;BME280;51039;49.696;10.808;2023-08-06T10:52:45;97303.72;;;20.99;66.71
64078;BME280;51039;49.696;10.808;2023-08-06T10:55:12;97296.06;;;20.41;68.57
64078;BME280;51039;49.696;10.808;2023-08-06T10:57:47;97300.25;;;20.99;67.26
64078;BME280;51039;49.696;10.808;2023-08-06T11:00:12;97298.16;;;20.44;68.20
64078;BME280;51039;49.696;10.808;2023-08-06T11:02:38;97293.16;;;20.89;67.99
64078;BME280;51039;49.696;10.808;2023-08-06T11:05:08;97289.94;;;21.62;63.96
64078;BME280;51039;49.696;10.808;2023-08-06T11:07:35;97298.78;;;20.74;67.36
64078;BME280;51039;49.696;10.808;2023-08-06T11:10:01;97294.69;;;20.25;69.66
64078;BME280;51039;49.696;10.808;2023-08-06T11:12:31;97294.09;;;21.12;67.27
64078;BME280;51039;49.696;10.808;2023-08-06T11:14:57;97287.13;;;21.67;64.79
64078;BME280;51039;49.696;10.808;2023-08-06T11:17:22;97280.47;;;20.57;67.62
64078;BME280;51039;49.696;10.808;2023-08-06T11:19:48;97294.03;;;20.14;68.17
64078;BME280;51039;49.696;10.808;2023-08-06T11:22:16;97287.63;;;20.48;67.05
64078;BME280;51039;49.696;10.808;2023-08-06T11:24:43;97274.16;;;21.13;66.64
64078;BME280;51039;49.696;10.808;2023-08-06T11:27:12;97273.03;;;21.14;65.66
64078;BME280;51039;49.696;10.808;2023-08-06T11:29:38;97270.69;;;21.54;64.49
64078;BME280;51039;49.696;10.808;2023-08-06T11:32:04;97267.69;;;22.06;63.32
64078;BME280;51039;49.696;10.808;2023-08-06T11:34:30;97261.78;;;21.68;63.84
64078;BME280;51039;49.696;10.808;2023-08-06T11:36:56;97259.97;;;21.22;63.87
64078;BME280;51039;49.696;10.808;2023-08-06T11:39:22;97263.00;;;21.62;64.76
64078;BME280;51039;49.696;10.808;2023-08-06T11:41:47;97265.28;;;21.27;64.79
64078;BME280;51039;49.696;10.808;2023-08-06T11:44:13;97283.63;;;20.45;67.77
64078;BME280;51039;49.696;10.808;2023-08-06T11:46:54;97285.47;;;18.62;85.78
64078;BME280;51039;49.696;10.808;2023-08-06T11:52:09;97279.00;;;17.89;93.40
64078;BME280;51039;49.696;10.808;2023-08-06T11:54:44;97282.16;;;18.75;91.34
64078;BME280;51039;49.696;10.808;2023-08-06T11:57:10;97268.69;;;19.58;90.31
64078;BME280;51039;49.696;10.808;2023-08-06T11:59:36;97267.66;;;20.16;89.14
64078;BME280;51039;49.696;10.808;2023-08-06T12:02:03;97258.59;;;19.93;88.53
64078;BME280;51039;49.696;10.808;2023-08-06T12:07:45;97255.28;;;19.34;88.83
64078;BME280;51039;49.696;10.808;2023-08-06T12:10:13;97248.06;;;19.96;88.62
64078;BME280;51039;49.696;10.808;2023-08-06T12:12:39;97253.44;;;19.29;83.64
64078;BME280;51039;49.696;10.808;2023-08-06T12:15:06;97262.06;;;19.02;87.72
64078;BME280;51039;49.696;10.808;2023-08-06T12:17:32;97263.00;;;19.84;85.48
64078;BME280;51039;49.696;10.808;2023-08-06T12:19:58;97257.00;;;20.44;81.37
64078;BME280;51039;49.696;10.808;2023-08-06T12:22:23;97252.72;;;20.62;78.18
64078;BME280;51039;49.696;10.808;2023-08-06T12:24:49;97254.38;;;20.25;77.38
64078;BME280;51039;49.696;10.808;2023-08-06T12:27:14;97270.38;;;19.06;79.23
64078;BME280;51039;49.696;10.808;2023-08-06T12:29:41;97268.63;;;18.22;80.62
64078;BME280;51039;49.696;10.808;2023-08-06T12:32:09;97268.06;;;17.75;82.57
64078;BME280;51039;49.696;10.808;2023-08-06T12:34:35;97274.81;;;17.67;85.85
64078;BME280;51039;49.696;10.808;2023-08-06T12:37:00;97275.84;;;17.72;87.12
64078;BME280;51039;49.696;10.808;2023-08-06T12:39:27;97269.25;;;18.09;88.51
64078;BME280;51039;49.696;10.808;2023-08-06T12:41:53;97262.63;;;18.35;87.03
64078;BME280;51039;49.696;10.808;2023-08-06T12:44:20;97263.63;;;18.79;86.57
64078;BME280;51039;49.696;10.808;2023-08-06T12:46:45;97262.00;;;19.79;86.87
64078;BME280;51039;49.696;10.808;2023-08-06T12:49:11;97257.97;;;20.34;84.93
64078;BME280;51039;49.696;10.808;2023-08-06T12:51:36;97250.75;;;19.96;83.75
64078;BME280;51039;49.696;10.808;2023-08-06T12:54:01;97256.97;;;19.49;81.97